createdAt,value
2022-11-13T00:01:26.381Z,13.88
2022-11-13T00:04:12.789Z,15.90
2022-11-13T00:06:59.583Z,15.35
2022-11-13T00:09:45.303Z,14.00
2022-11-13T00:12:30.904Z,15.52
2022-11-13T00:15:16.761Z,15.07
2022-11-13T00:18:03.285Z,14.25
2022-11-13T00:20:48.637Z,14.48
2022-11-13T00:23:35.980Z,14.43
2022-11-13T00:26:24.629Z,13.73
2022-11-13T00:29:10.021Z,15.00
2022-11-13T00:31:55.674Z,13.52
2022-11-13T00:34:47.565Z,14.15
2022-11-13T00:37:34.143Z,12.00
2022-11-13T00:40:19.795Z,12.20
2022-11-13T00:43:05.549Z,11.93
2022-11-13T00:45:51.542Z,12.10
2022-11-13T00:48:37.330Z,11.48
2022-11-13T00:51:23.217Z,11.15
2022-11-13T00:54:08.778Z,9.73
2022-11-13T00:56:54.302Z,11.52
2022-11-13T00:59:39.674Z,11.40
2022-11-13T01:02:25.113Z,11.05
2022-11-13T01:05:10.881Z,12.40
2022-11-13T01:07:56.451Z,13.30
2022-11-13T01:10:53.229Z,12.60
2022-11-13T01:13:40.748Z,12.60
2022-11-13T01:16:28.388Z,13.38
2022-11-13T01:19:14.340Z,12.30
2022-11-13T01:22:00.393Z,13.90
2022-11-13T01:24:46.071Z,14.25
2022-11-13T01:27:31.645Z,14.00
2022-11-13T01:30:17.296Z,14.45
2022-11-13T01:33:02.695Z,14.82
2022-11-13T01:38:36.566Z,13.88
2022-11-13T01:41:24.849Z,12.98
2022-11-13T01:44:13.670Z,14.13
2022-11-13T01:46:59.506Z,12.98
2022-11-13T01:49:46.708Z,12.07
2022-11-13T01:52:36.331Z,11.27
2022-11-13T01:55:22.018Z,12.35
2022-11-13T01:58:10.496Z,13.30
2022-11-13T02:00:56.252Z,12.18
2022-11-13T02:03:41.875Z,12.05
2022-11-13T02:06:33.466Z,13.93
2022-11-13T02:09:24.777Z,11.98
2022-11-13T02:12:16.301Z,13.68
2022-11-13T02:15:05.690Z,13.40
2022-11-13T02:17:55.633Z,15.30
2022-11-13T02:20:50.362Z,16.77
2022-11-13T02:23:41.634Z,14.57
2022-11-13T02:26:29.563Z,12.55
2022-11-13T02:29:15.548Z,14.02
2022-11-13T02:32:01.074Z,13.93
2022-11-13T02:34:46.591Z,13.10
2022-11-13T02:37:32.262Z,18.33
2022-11-13T02:40:18.727Z,13.80
2022-11-13T02:43:04.411Z,14.27
2022-11-13T02:45:49.791Z,13.63
2022-11-13T02:48:35.149Z,13.10
2022-11-13T02:54:05.893Z,13.98
2022-11-13T02:56:51.780Z,13.32
2022-11-13T02:59:37.428Z,12.00
2022-11-13T03:02:22.788Z,13.15
2022-11-13T03:05:13.537Z,12.95
2022-11-13T03:07:59.469Z,15.15
2022-11-13T03:10:44.944Z,15.18
2022-11-13T03:13:30.517Z,15.85
2022-11-13T03:16:17.555Z,12.70
2022-11-13T03:19:04.073Z,12.85
2022-11-13T03:21:49.737Z,14.30
2022-11-13T03:24:35.172Z,12.07
2022-11-13T03:27:21.164Z,14.65
2022-11-13T03:30:07.550Z,23.17
2022-11-13T03:32:55.380Z,13.25
2022-11-13T03:35:45.477Z,13.35
2022-11-13T03:38:32.875Z,13.32
2022-11-13T03:41:18.183Z,13.65
2022-11-13T03:44:03.703Z,12.52
2022-11-13T03:46:49.337Z,12.32
2022-11-13T03:49:34.757Z,12.45
2022-11-13T03:52:20.430Z,16.95
2022-11-13T03:55:06.225Z,12.73
2022-11-13T03:57:51.663Z,11.98
2022-11-13T04:00:38.808Z,11.25
2022-11-13T04:03:24.651Z,12.30
2022-11-13T04:06:10.635Z,10.38
2022-11-13T04:08:56.210Z,13.40
2022-11-13T04:11:41.763Z,10.80
2022-11-13T04:14:27.150Z,11.43
2022-11-13T04:17:12.541Z,11.57
2022-11-13T04:19:58.199Z,11.88
2022-11-13T04:22:43.682Z,11.30
2022-11-13T04:25:29.370Z,11.05
2022-11-13T04:28:14.733Z,11.25
2022-11-13T04:31:00.319Z,11.38
2022-11-13T04:33:46.065Z,11.38
2022-11-13T04:36:31.546Z,9.82
2022-11-13T04:39:17.066Z,11.05
2022-11-13T04:42:21.011Z,11.27
2022-11-13T04:45:07.056Z,10.88
2022-11-13T04:47:52.552Z,10.52
2022-11-13T04:50:38.100Z,11.50
2022-11-13T04:53:23.565Z,9.52
2022-11-13T04:56:09.097Z,10.82
2022-11-13T04:58:54.475Z,10.70
2022-11-13T05:01:40.328Z,10.60
2022-11-13T05:04:25.720Z,11.85
2022-11-13T05:07:11.981Z,10.40
2022-11-13T05:09:57.326Z,11.02
2022-11-13T05:12:42.663Z,10.80
2022-11-13T05:15:28.248Z,11.10
2022-11-13T05:18:13.916Z,11.60
2022-11-13T05:20:59.614Z,11.10
2022-11-13T05:23:45.393Z,11.57
2022-11-13T05:26:31.290Z,9.93
2022-11-13T05:29:16.886Z,9.40
2022-11-13T05:32:02.715Z,9.93
2022-11-13T05:34:48.316Z,8.30
2022-11-13T05:37:33.693Z,9.57
2022-11-13T05:40:18.959Z,9.75
2022-11-13T05:43:04.348Z,10.10
2022-11-13T05:45:49.803Z,8.57
2022-11-13T05:48:36.054Z,9.20
2022-11-13T05:51:24.331Z,10.77
2022-11-13T05:54:10.832Z,8.68
2022-11-13T05:56:56.190Z,8.98
2022-11-13T05:59:41.617Z,9.88
2022-11-13T06:02:27.197Z,8.45
2022-11-13T06:05:12.650Z,9.63
2022-11-13T06:07:58.352Z,10.07
2022-11-13T06:10:43.893Z,9.52
2022-11-13T06:13:30.123Z,12.32
2022-11-13T06:16:20.469Z,14.00
2022-11-13T06:19:08.687Z,23.33
2022-11-13T06:21:54.204Z,15.52
2022-11-13T06:24:39.780Z,12.05
2022-11-13T06:27:25.102Z,10.57
2022-11-13T06:30:10.949Z,11.40
2022-11-13T06:32:56.604Z,11.15
2022-11-13T06:35:42.003Z,11.48
2022-11-13T06:38:30.221Z,10.48
2022-11-13T06:41:17.969Z,11.00
2022-11-13T06:44:03.679Z,9.45
2022-11-13T06:46:49.154Z,9.80
2022-11-13T06:49:34.463Z,10.10
2022-11-13T06:52:20.034Z,11.80
2022-11-13T06:55:05.934Z,10.48
2022-11-13T06:57:51.488Z,9.77
2022-11-13T07:00:39.777Z,9.35
2022-11-13T07:03:27.233Z,9.65
2022-11-13T07:06:18.984Z,8.30
2022-11-13T07:09:04.860Z,9.60
2022-11-13T07:11:50.048Z,9.18
2022-11-13T07:17:20.792Z,7.30
2022-11-13T07:20:06.651Z,9.13
2022-11-13T07:22:55.932Z,10.20
2022-11-13T07:25:41.606Z,9.38
2022-11-13T07:28:27.322Z,8.60
2022-11-13T07:31:14.182Z,8.13
2022-11-13T07:33:59.520Z,8.82
2022-11-13T07:36:44.580Z,10.02
2022-11-13T07:39:30.085Z,8.60
2022-11-13T07:42:15.852Z,9.25
2022-11-13T07:45:01.342Z,8.40
2022-11-13T07:47:47.053Z,8.57
2022-11-13T07:53:20.808Z,8.68
2022-11-13T07:56:07.053Z,8.00
2022-11-13T07:58:52.510Z,8.70
2022-11-13T08:01:38.541Z,8.68
2022-11-13T08:04:24.282Z,8.40
2022-11-13T08:07:13.082Z,8.25
2022-11-13T08:10:00.128Z,7.70
2022-11-13T08:12:46.182Z,8.90
2022-11-13T08:15:32.412Z,7.57
2022-11-13T08:18:18.209Z,7.80
2022-11-13T08:21:11.899Z,8.20
2022-11-13T08:24:00.646Z,6.90
2022-11-13T08:26:46.178Z,6.88
2022-11-13T08:29:31.652Z,8.18
2022-11-13T08:32:19.137Z,6.40
2022-11-13T08:35:05.325Z,8.32
2022-11-13T08:37:50.864Z,7.20
2022-11-13T08:40:36.341Z,7.28
2022-11-13T08:43:21.909Z,7.03
2022-11-13T08:46:07.894Z,6.88
2022-11-13T08:48:53.204Z,7.07
2022-11-13T08:51:38.843Z,6.68
2022-11-13T08:54:24.555Z,6.10
2022-11-13T08:57:09.920Z,6.38
2022-11-13T08:59:55.428Z,7.25
2022-11-13T09:02:41.150Z,7.10
2022-11-13T09:05:27.290Z,6.93
2022-11-13T09:08:12.722Z,7.32
2022-11-13T09:11:02.680Z,7.20
2022-11-13T09:13:52.940Z,6.97
2022-11-13T09:16:38.981Z,7.57
2022-11-13T09:19:24.561Z,7.80
2022-11-13T09:22:11.000Z,7.38
2022-11-13T09:24:56.610Z,7.53
2022-11-13T09:27:42.064Z,7.05
2022-11-13T09:30:30.071Z,5.80
2022-11-13T09:33:15.693Z,6.00
2022-11-13T09:38:46.768Z,6.50
2022-11-13T09:41:38.022Z,6.70
2022-11-13T09:44:39.302Z,6.90
2022-11-13T09:47:30.549Z,6.85
2022-11-13T09:50:26.285Z,6.97
2022-11-13T09:53:14.756Z,7.15
2022-11-13T09:56:25.489Z,7.32
2022-11-13T09:59:17.019Z,7.03
2022-11-13T10:02:11.228Z,7.25
2022-11-13T10:05:06.748Z,7.05
2022-11-13T10:08:05.545Z,7.45
2022-11-13T10:11:10.081Z,7.05
2022-11-13T10:14:12.175Z,7.10
2022-11-13T10:17:36.140Z,6.43
2022-11-13T10:20:34.139Z,6.15
2022-11-13T10:23:28.567Z,6.20
2022-11-13T10:26:19.882Z,6.22
2022-11-13T10:29:15.679Z,6.63
2022-11-13T10:32:22.247Z,7.10
2022-11-13T10:35:07.820Z,6.90
2022-11-13T10:38:08.174Z,6.57
2022-11-13T10:41:06.959Z,7.07
2022-11-13T10:43:59.792Z,5.80
2022-11-13T10:46:45.059Z,8.23
2022-11-13T10:49:30.746Z,6.57
2022-11-13T10:52:25.735Z,6.20
2022-11-13T10:55:18.223Z,5.80
2022-11-13T10:58:12.600Z,6.65
2022-11-13T11:00:58.277Z,6.28
2022-11-13T11:07:17.856Z,6.22
2022-11-13T11:09:49.891Z,6.05
2022-11-13T11:12:35.262Z,5.80
2022-11-13T11:15:29.530Z,6.03
2022-11-13T11:18:26.663Z,6.20
2022-11-13T11:21:35.028Z,5.55
2022-11-13T11:24:30.114Z,5.28
2022-11-13T11:27:23.287Z,6.72
2022-11-13T11:30:23.747Z,5.90
2022-11-13T11:33:12.186Z,6.38
2022-11-13T11:36:13.552Z,5.63
2022-11-13T11:39:40.578Z,5.63
2022-11-13T11:43:08.274Z,5.80
2022-11-13T11:45:54.057Z,5.40
2022-11-13T11:48:40.620Z,5.43
2022-11-13T11:51:39.976Z,7.03
2022-11-13T11:54:51.555Z,6.10
2022-11-13T11:57:54.893Z,6.07
2022-11-13T12:00:49.992Z,8.00
2022-11-13T12:03:44.771Z,4.90
2022-11-13T12:06:50.242Z,4.93
2022-11-13T12:09:47.615Z,4.70
2022-11-13T12:12:54.541Z,10.57
2022-11-13T12:16:02.337Z,6.13
2022-11-13T12:19:11.198Z,4.28
2022-11-13T12:22:07.780Z,6.88
2022-11-13T12:25:01.541Z,5.05
2022-11-13T12:28:05.259Z,7.15
2022-11-13T12:31:06.313Z,4.40
2022-11-13T12:34:04.095Z,5.15
2022-11-13T12:36:50.294Z,4.50
2022-11-13T12:40:16.223Z,4.95
2022-11-13T12:43:07.789Z,4.53
2022-11-13T12:45:56.004Z,5.07
2022-11-13T12:48:47.127Z,7.95
2022-11-13T12:51:40.682Z,4.43
2022-11-13T12:54:37.470Z,4.60
2022-11-13T12:57:30.168Z,4.78
2022-11-13T13:00:31.101Z,4.40
2022-11-13T13:03:28.619Z,5.00
2022-11-13T13:06:28.460Z,4.80
2022-11-13T13:09:44.889Z,4.43
2022-11-13T13:12:49.655Z,4.50
2022-11-13T13:15:42.015Z,10.48
2022-11-13T13:18:33.863Z,12.45
2022-11-13T13:21:20.805Z,24.67
2022-11-13T13:24:30.014Z,26.50
2022-11-13T13:27:28.192Z,7.53
2022-11-13T13:30:25.306Z,5.30
2022-11-13T13:33:22.227Z,5.20
2022-11-13T13:36:43.153Z,4.20
2022-11-13T13:39:52.999Z,4.68
2022-11-13T13:43:06.486Z,4.65
2022-11-13T13:46:22.103Z,4.65
2022-11-13T13:49:14.671Z,13.27
2022-11-13T13:52:00.449Z,6.70
2022-11-13T13:54:47.783Z,6.32
2022-11-13T13:57:39.879Z,4.93
2022-11-13T14:00:26.445Z,6.50
2022-11-13T14:03:30.177Z,6.32
2022-11-13T14:06:20.564Z,4.82
2022-11-13T14:09:19.205Z,5.28
2022-11-13T14:12:18.677Z,4.60
2022-11-13T14:15:06.135Z,5.18
2022-11-13T14:17:52.340Z,5.93
2022-11-13T14:20:45.060Z,5.53
2022-11-13T14:23:44.376Z,5.53
2022-11-13T14:26:30.448Z,6.35
2022-11-13T14:29:23.287Z,4.72
2022-11-13T14:32:22.304Z,5.13
2022-11-13T14:35:09.685Z,4.40
2022-11-13T14:37:56.161Z,4.93
2022-11-13T14:40:48.076Z,4.95
2022-11-13T14:43:34.204Z,5.93
2022-11-13T14:46:27.481Z,4.55
2022-11-13T14:49:30.304Z,4.93
2022-11-13T14:52:29.177Z,5.53
2022-11-13T14:55:23.763Z,4.50
2022-11-13T14:58:13.963Z,5.00
2022-11-13T15:01:23.349Z,7.13
2022-11-13T15:04:08.933Z,5.20
2022-11-13T15:07:00.893Z,5.00
2022-11-13T15:09:46.216Z,5.20
2022-11-13T15:12:31.895Z,5.70
2022-11-13T15:18:05.593Z,4.97
2022-11-13T15:20:51.180Z,5.28
2022-11-13T15:23:36.979Z,4.70
2022-11-13T15:29:08.211Z,5.32
2022-11-13T15:31:54.710Z,6.13
2022-11-13T15:34:40.714Z,5.60
2022-11-13T15:37:26.520Z,5.57
2022-11-13T15:40:13.790Z,4.57
2022-11-13T15:43:01.395Z,4.88
2022-11-13T15:45:47.033Z,4.35
2022-11-13T15:48:32.765Z,5.22
2022-11-13T15:51:43.829Z,5.13
2022-11-13T15:54:33.506Z,5.72
2022-11-13T15:57:24.401Z,5.03
2022-11-13T16:00:15.007Z,4.57
2022-11-13T16:03:00.856Z,5.10
2022-11-13T16:05:46.446Z,6.20
2022-11-13T16:08:31.986Z,4.70
2022-11-13T16:11:19.745Z,4.20
2022-11-13T16:14:05.855Z,4.97
2022-11-13T16:16:52.197Z,4.95
2022-11-13T16:19:38.749Z,4.55
2022-11-13T16:22:26.067Z,4.40
2022-11-13T16:25:14.403Z,4.40
2022-11-13T16:27:59.931Z,4.13
2022-11-13T16:30:46.371Z,4.72
2022-11-13T16:33:32.158Z,4.15
2022-11-13T16:36:22.433Z,4.38
2022-11-13T16:39:16.493Z,4.40
2022-11-13T16:42:02.358Z,4.22
2022-11-13T16:44:48.136Z,3.47
2022-11-13T16:47:33.735Z,4.20
2022-11-13T16:50:24.144Z,4.95
2022-11-13T16:53:11.133Z,4.10
2022-11-13T16:55:56.967Z,3.80
2022-11-13T16:58:42.692Z,3.80
2022-11-13T17:01:28.168Z,5.13
2022-11-13T17:04:16.751Z,6.45
2022-11-13T17:07:02.648Z,6.60
2022-11-13T17:09:58.852Z,4.78
2022-11-13T17:12:54.258Z,7.20
2022-11-13T17:15:39.841Z,3.60
2022-11-13T17:18:25.204Z,3.20
2022-11-13T17:21:11.436Z,3.97
2022-11-13T17:24:01.465Z,5.13
2022-11-13T17:26:46.715Z,8.88
2022-11-13T17:29:32.453Z,9.05
2022-11-13T17:32:18.327Z,7.65
2022-11-13T17:35:06.026Z,3.95
2022-11-13T17:37:51.529Z,3.78
2022-11-13T17:40:37.053Z,8.48
2022-11-13T17:43:22.669Z,6.25
2022-11-13T17:46:17.208Z,4.97
2022-11-13T17:49:03.144Z,2.70
2022-11-13T17:51:48.687Z,4.28
2022-11-13T17:54:34.192Z,4.30
2022-11-13T17:57:24.180Z,5.10
2022-11-13T18:00:12.870Z,5.28
2022-11-13T18:02:58.595Z,4.28
2022-11-13T18:05:44.987Z,4.40
2022-11-13T18:08:30.458Z,3.80
2022-11-13T18:11:21.561Z,4.07
2022-11-13T18:14:06.836Z,3.42
2022-11-13T18:16:52.507Z,3.78
2022-11-13T18:19:38.495Z,3.40
2022-11-13T18:22:23.991Z,5.78
2022-11-13T18:25:09.690Z,4.78
2022-11-13T18:27:55.417Z,5.72
2022-11-13T18:30:41.302Z,5.05
2022-11-13T18:33:26.952Z,4.75
2022-11-13T18:36:12.831Z,5.13
2022-11-13T18:38:59.468Z,5.40
2022-11-13T18:41:44.784Z,4.78
2022-11-13T18:44:30.377Z,4.50
2022-11-13T18:47:15.893Z,4.85
2022-11-13T18:50:01.273Z,3.45
2022-11-13T18:52:46.881Z,4.57
2022-11-13T18:55:32.199Z,3.97
2022-11-13T18:58:18.036Z,4.65
2022-11-13T19:01:20.525Z,5.82
2022-11-13T19:04:24.329Z,5.20
2022-11-13T19:07:12.401Z,4.75
2022-11-13T19:09:58.384Z,4.25
2022-11-13T19:12:43.706Z,4.28
2022-11-13T19:15:29.532Z,4.72
2022-11-13T19:18:15.202Z,6.18
2022-11-13T19:21:09.241Z,6.80
2022-11-13T19:23:55.426Z,5.07
2022-11-13T19:26:41.912Z,5.78
2022-11-13T19:29:27.564Z,5.13
2022-11-13T19:32:13.028Z,4.80
2022-11-13T19:34:58.561Z,5.20
2022-11-13T19:37:44.224Z,3.08
2022-11-13T19:40:29.924Z,3.53
2022-11-13T19:43:15.517Z,3.00
2022-11-13T19:46:05.673Z,4.95
2022-11-13T19:48:51.818Z,4.45
2022-11-13T19:51:37.727Z,3.60
2022-11-13T19:54:23.419Z,2.90
2022-11-13T19:57:09.002Z,3.22
2022-11-13T19:59:54.401Z,3.63
2022-11-13T20:02:40.087Z,3.70
2022-11-13T20:08:12.940Z,3.95
2022-11-13T20:11:04.074Z,3.75
2022-11-13T20:13:49.501Z,4.43
2022-11-13T20:16:34.959Z,3.10
2022-11-13T20:19:20.381Z,3.00
2022-11-13T20:22:05.859Z,3.58
2022-11-13T20:24:51.275Z,3.97
2022-11-13T20:27:37.531Z,3.40
2022-11-13T20:30:23.209Z,4.15
2022-11-13T20:33:08.580Z,3.72
2022-11-13T20:35:54.670Z,4.00
2022-11-13T20:38:41.037Z,4.40
2022-11-13T20:41:26.486Z,4.82
2022-11-13T20:44:12.565Z,4.43
2022-11-13T20:46:58.241Z,3.50
2022-11-13T20:49:43.790Z,2.92
2022-11-13T20:52:29.270Z,3.28
2022-11-13T20:57:59.821Z,3.33
2022-11-13T21:00:45.406Z,3.60
2022-11-13T21:03:31.116Z,4.65
2022-11-13T21:06:19.385Z,3.83
2022-11-13T21:09:05.704Z,4.00
2022-11-13T21:11:51.331Z,3.67
2022-11-13T21:14:36.790Z,3.22
2022-11-13T21:17:22.511Z,2.78
2022-11-13T21:20:08.551Z,2.83
2022-11-13T21:22:54.344Z,2.55
2022-11-13T21:25:40.353Z,3.33
2022-11-13T21:28:30.594Z,2.60
2022-11-13T21:31:19.517Z,3.40
2022-11-13T21:34:04.972Z,3.38
2022-11-13T21:36:50.507Z,3.47
2022-11-13T21:42:21.054Z,3.45
2022-11-13T21:45:06.922Z,3.65
2022-11-13T21:47:53.127Z,4.68
2022-11-13T21:50:38.882Z,3.33
2022-11-13T21:53:24.468Z,2.90
2022-11-13T21:56:15.436Z,2.72
2022-11-13T21:59:01.806Z,2.83
2022-11-13T22:01:47.375Z,2.83
2022-11-13T22:04:32.824Z,2.70
2022-11-13T22:07:18.408Z,2.90
2022-11-13T22:10:08.175Z,2.95
2022-11-13T22:12:54.081Z,3.53
2022-11-13T22:15:39.673Z,2.72
2022-11-13T22:18:25.253Z,3.15
2022-11-13T22:21:13.139Z,3.50
2022-11-13T22:24:00.120Z,3.08
2022-11-13T22:26:45.966Z,3.20
2022-11-13T22:29:31.477Z,3.55
2022-11-13T22:32:17.053Z,3.38
2022-11-13T22:35:02.320Z,3.78
2022-11-13T22:37:47.812Z,2.78
2022-11-13T22:40:33.502Z,2.83
2022-11-13T22:43:19.251Z,2.97
2022-11-13T22:46:06.464Z,3.13
2022-11-13T22:48:53.733Z,3.35
2022-11-13T22:51:41.761Z,2.65
2022-11-13T22:54:27.519Z,3.70
2022-11-13T22:57:12.869Z,3.50
2022-11-13T22:59:58.329Z,3.15
2022-11-13T23:02:47.288Z,3.38
2022-11-13T23:05:35.938Z,3.40
2022-11-13T23:08:21.398Z,3.00
2022-11-13T23:11:11.127Z,2.65
2022-11-13T23:13:59.229Z,2.88
2022-11-13T23:16:44.928Z,2.70
2022-11-13T23:19:30.384Z,2.83
2022-11-13T23:22:15.751Z,2.60
2022-11-13T23:25:01.252Z,2.55
2022-11-13T23:27:47.875Z,3.20
2022-11-13T23:30:33.287Z,2.72
2022-11-13T23:33:19.457Z,2.67
2022-11-13T23:36:06.353Z,2.65
2022-11-13T23:38:51.803Z,2.80
2022-11-13T23:41:37.276Z,2.55
2022-11-13T23:44:22.919Z,2.45
2022-11-13T23:47:08.500Z,2.53
2022-11-13T23:49:54.152Z,2.78
2022-11-13T23:52:39.598Z,3.45
2022-11-13T23:55:25.130Z,3.50
2022-11-13T23:58:16.579Z,4.93
